Time;durP1;ratioP1;P1;durP2;ratioP2;P2;SDS_P1;SDS_P2;PMS_P1;PMS_P2;Temp;Humidity;BMP_temperature;BMP_pressure;BME280_temperature;BME280_humidity;BME280_pressure;Samples;Min_cycle;Max_cycle;Signal;HPM_P1;HPM_P2
2021/10/05 00:00:53;;;;;;;9.82;2.97;;;;;;;13.81;92.69;101233.69;4995124;28;20076;-84
2021/10/05 00:03:18;;;;;;;14.52;3.58;;;;;;;13.80;92.73;101226.53;4991561;28;20033;-84
2021/10/05 00:05:44;;;;;;;15.70;2.78;;;;;;;13.80;93.04;101226.53;4995938;28;20026;-85
2021/10/05 00:08:09;;;;;;;14.73;3.40;;;;;;;13.77;93.17;101228.75;4996530;28;20026;-85
2021/10/05 00:10:34;;;;;;;14.65;3.30;;;;;;;13.78;93.39;101213.13;4991665;28;20053;-85
2021/10/05 00:13:01;;;;;;;9.15;3.10;;;;;;;13.77;92.97;101227.91;5010034;28;20070;-84
2021/10/05 00:15:26;;;;;;;12.40;2.97;;;;;;;13.77;93.14;101212.28;5013080;28;20393;-86
2021/10/05 00:17:52;;;;;;;13.25;2.67;;;;;;;13.78;92.95;101226.84;4996521;28;20026;-85
2021/10/05 00:20:18;;;;;;;16.42;3.25;;;;;;;13.80;93.08;101232.03;5012259;28;20037;-85
2021/10/05 00:22:43;;;;;;;12.57;2.92;;;;;;;13.80;93.11;101221.88;5008862;28;20030;-85
2021/10/05 00:25:09;;;;;;;11.15;2.83;;;;;;;13.77;92.88;101223.25;4989715;28;20482;-85
2021/10/05 00:27:34;;;;;;;13.60;3.50;;;;;;;13.75;93.03;101222.75;5004227;28;20022;-84
2021/10/05 00:30:00;;;;;;;21.60;3.88;;;;;;;13.75;93.25;101219.19;5012236;28;20030;-84
2021/10/05 00:32:26;;;;;;;14.27;4.13;;;;;;;13.75;93.27;101220.00;5012535;28;20030;-84
2021/10/05 00:34:51;;;;;;;17.60;3.80;;;;;;;13.73;93.19;101211.25;4961929;28;20030;-86
2021/10/05 00:37:17;;;;;;;14.07;3.47;;;;;;;13.73;93.37;101215.91;4996336;28;20021;-84
2021/10/05 00:39:44;;;;;;;13.75;4.00;;;;;;;13.70;93.42;101217.28;5012850;28;20473;-84
2021/10/05 00:42:10;;;;;;;18.33;4.10;;;;;;;13.68;93.47;101218.69;5013225;28;20018;-84
2021/10/05 00:44:37;;;;;;;10.38;2.97;;;;;;;13.69;93.87;101223.03;4995881;28;20072;-85
2021/10/05 00:47:07;;;;;;;15.30;4.28;;;;;;;13.70;94.08;101228.25;4978858;28;20491;-84
2021/10/05 00:49:33;;;;;;;10.10;3.67;;;;;;;13.76;94.23;101226.28;4979603;28;20030;-84
2021/10/05 00:52:02;;;;;;;14.13;3.40;;;;;;;13.81;94.19;101228.19;4994928;28;20025;-85
2021/10/05 00:54:31;;;;;;;12.45;3.60;;;;;;;13.85;94.18;101237.47;4979931;28;20061;-85
2021/10/05 00:56:56;;;;;;;13.82;4.65;;;;;;;13.86;94.01;101231.72;4995488;28;20030;-84
2021/10/05 00:59:22;;;;;;;8.43;3.50;;;;;;;13.88;93.93;101239.63;4990454;28;20033;-85
2021/10/05 01:01:47;;;;;;;10.70;3.50;;;;;;;13.87;93.74;101236.09;4975665;28;20041;-84
2021/10/05 01:04:12;;;;;;;9.80;3.25;;;;;;;13.86;93.59;101236.34;5007098;28;20022;-84
2021/10/05 01:06:53;;;;;;;13.63;3.67;;;;;;;13.85;93.50;101230.06;4978416;28;20030;-84
2021/10/05 01:09:20;;;;;;;11.23;3.70;;;;;;;13.83;93.41;101232.28;4995605;28;20022;-84
2021/10/05 01:11:45;;;;;;;12.23;3.00;;;;;;;13.83;93.48;101231.44;4978223;28;20089;-84
2021/10/05 01:14:10;;;;;;;12.68;3.40;;;;;;;13.81;93.49;101233.69;4995330;28;20054;-84
2021/10/05 01:16:36;;;;;;;6.45;2.33;;;;;;;13.77;93.61;101231.47;5012297;28;20515;-85
2021/10/05 01:19:02;;;;;;;12.05;3.58;;;;;;;13.75;93.64;101233.72;4995420;28;20469;-84
2021/10/05 01:21:27;;;;;;;10.18;3.53;;;;;;;13.75;93.61;101230.16;5011710;28;20038;-85
2021/10/05 01:23:53;;;;;;;13.45;3.60;;;;;;;13.75;93.31;101228.22;4992125;28;20097;-84
2021/10/05 01:26:19;;;;;;;16.38;3.75;;;;;;;13.74;93.55;101223.00;5007721;28;20026;-84
2021/10/05 01:28:44;;;;;;;11.52;4.20;;;;;;;13.72;93.45;101225.22;4994855;28;20095;-84
2021/10/05 01:31:09;;;;;;;15.27;3.70;;;;;;;13.71;93.71;101216.19;5011860;28;20029;-84
2021/10/05 01:33:35;;;;;;;14.10;2.97;;;;;;;13.70;93.51;101214.56;4995292;28;20028;-84
2021/10/05 01:36:00;;;;;;;10.85;3.38;;;;;;;13.71;93.70;101229.06;4994526;28;20389;-85
2021/10/05 01:38:26;;;;;;;13.43;2.95;;;;;;;13.70;94.07;101222.78;4994973;28;20026;-85
2021/10/05 01:40:51;;;;;;;11.10;3.50;;;;;;;13.71;93.32;101212.63;4977219;28;20153;-84
2021/10/05 01:43:17;;;;;;;13.77;3.35;;;;;;;13.72;93.32;101209.63;5012635;28;20083;-84
2021/10/05 01:45:42;;;;;;;12.85;3.10;;;;;;;13.71;93.00;101201.66;4977948;28;20053;-85
2021/10/05 01:48:08;;;;;;;13.55;2.70;;;;;;;13.69;92.97;101210.16;4995341;28;20543;-84
2021/10/05 01:50:34;;;;;;;12.35;2.78;;;;;;;13.68;93.05;101205.78;4994411;28;20036;-84
2021/10/05 01:53:01;;;;;;;12.82;3.75;;;;;;;13.69;92.90;101215.63;4995288;28;20018;-85
2021/10/05 01:55:26;;;;;;;13.52;3.00;;;;;;;13.68;92.77;101205.78;5010914;28;20038;-84
2021/10/05 01:57:52;;;;;;;14.98;2.78;;;;;;;13.69;92.78;101204.69;4995146;28;20080;-84
2021/10/05 02:00:19;;;;;;;10.02;2.70;;;;;;;13.69;92.73;101212.91;4978168;28;20036;-85
2021/10/05 02:02:46;;;;;;;10.20;2.75;;;;;;;13.67;92.52;101193.22;4995178;28;20029;-84
2021/10/05 02:05:11;;;;;;;10.23;2.47;;;;;;;13.67;92.71;101195.94;5011514;28;20026;-85
2021/10/05 02:07:37;;;;;;;16.10;3.42;;;;;;;13.65;92.69;101209.09;4991731;28;20050;-84
2021/10/05 02:10:05;;;;;;;14.68;3.53;;;;;;;13.64;92.87;101202.00;4978749;28;20037;-85
2021/10/05 02:12:30;;;;;;;13.95;3.10;;;;;;;13.63;92.81;101200.34;5011205;28;20373;-85
2021/10/05 02:14:56;;;;;;;10.35;3.63;;;;;;;13.61;93.00;101199.81;4994094;28;20031;-85
2021/10/05 02:17:21;;;;;;;11.20;3.58;;;;;;;13.60;92.88;101189.16;5011758;28;20037;-85
2021/10/05 02:19:47;;;;;;;17.08;3.80;;;;;;;13.61;92.86;101186.09;4995364;28;20025;-85
2021/10/05 02:22:12;;;;;;;12.15;2.72;;;;;;;13.59;92.70;101188.34;5010848;28;20026;-84
2021/10/05 02:24:44;;;;;;;13.05;4.07;;;;;;;13.60;92.77;101187.22;4992215;28;20033;-84
2021/10/05 02:27:11;;;;;;;10.93;2.85;;;;;;;13.58;92.96;101192.16;4986136;28;20022;-84
2021/10/05 02:29:36;;;;;;;12.57;2.70;;;;;;;13.59;93.19;101198.47;4982554;28;20026;-84
2021/10/05 02:32:08;;;;;;;11.02;2.95;;;;;;;13.59;93.33;101198.47;4995039;28;20026;-84
2021/10/05 02:34:34;;;;;;;8.88;3.15;;;;;;;13.59;93.43;101193.81;4982722;28;20524;-85
2021/10/05 02:36:59;;;;;;;11.50;2.80;;;;;;;13.60;93.35;101189.94;4997959;28;20026;-84
2021/10/05 02:39:24;;;;;;;14.88;4.07;;;;;;;13.59;93.40;101182.03;4999292;28;20022;-85
2021/10/05 02:41:51;;;;;;;14.75;3.67;;;;;;;13.60;93.24;101200.09;4998062;28;20439;-84
2021/10/05 02:44:16;;;;;;;16.83;3.20;;;;;;;13.62;93.37;101195.97;5016271;28;20018;-84
2021/10/05 02:46:42;;;;;;;13.85;3.67;;;;;;;13.62;93.43;101193.25;4998905;28;20052;-84
2021/10/05 02:49:07;;;;;;;14.27;3.22;;;;;;;13.60;93.34;101191.88;5016427;28;20025;-84
2021/10/05 02:51:33;;;;;;;9.77;3.17;;;;;;;13.58;93.32;101203.09;5014103;28;20036;-84
2021/10/05 02:53:58;;;;;;;9.20;2.63;;;;;;;13.55;93.46;101193.53;4996862;28;20029;-85
2021/10/05 02:56:24;;;;;;;15.38;3.63;;;;;;;13.54;93.32;101197.38;4997182;28;20030;-85
2021/10/05 02:58:49;;;;;;;11.68;3.00;;;;;;;13.53;93.39;101200.41;4998112;28;20033;-85
2021/10/05 03:01:15;;;;;;;11.65;2.95;;;;;;;13.53;93.46;101195.75;5004729;28;20034;-85
2021/10/05 03:03:40;;;;;;;15.60;3.92;;;;;;;13.52;93.33;101199.59;5014871;28;20061;-85
2021/10/05 03:06:05;;;;;;;19.20;3.78;;;;;;;13.51;93.17;101197.97;4996996;28;20451;-85
2021/10/05 03:08:31;;;;;;;12.32;3.25;;;;;;;13.52;93.38;101196.03;5015456;28;20018;-85
2021/10/05 03:10:57;;;;;;;15.80;3.83;;;;;;;13.51;93.46;101192.47;4997010;28;20022;-85
2021/10/05 03:13:23;;;;;;;19.48;3.75;;;;;;;13.51;93.37;101202.63;4981601;28;20038;-85
2021/10/05 03:15:48;;;;;;;17.70;4.53;;;;;;;13.51;93.45;101197.16;5014520;28;20088;-85
2021/10/05 03:18:15;;;;;;;13.07;3.08;;;;;;;13.48;93.37;101209.50;4981431;28;20032;-85
2021/10/05 03:20:40;;;;;;;16.10;3.35;;;;;;;13.44;93.51;101202.94;5011763;28;20096;-85
2021/10/05 03:23:06;;;;;;;11.43;3.60;;;;;;;13.42;93.24;101204.31;4997209;28;20460;-85
2021/10/05 03:25:31;;;;;;;14.60;3.55;;;;;;;13.42;93.45;101204.31;4997611;28;20034;-85
2021/10/05 03:27:56;;;;;;;15.18;4.45;;;;;;;13.38;93.23;101192.28;4996901;28;20052;-86
2021/10/05 03:30:22;;;;;;;23.42;5.38;;;;;;;13.29;93.41;101192.06;4997510;28;20017;-86
2021/10/05 03:32:47;;;;;;;15.48;4.63;;;;;;;13.21;93.51;101198.09;4980373;28;20436;-86
2021/10/05 03:35:13;;;;;;;11.02;4.43;;;;;;;13.15;93.61;101189.09;4967683;28;20076;-86
2021/10/05 03:37:39;;;;;;;15.55;3.60;;;;;;;13.11;93.73;101198.97;4996545;28;20022;-86
2021/10/05 03:40:05;;;;;;;17.20;4.88;;;;;;;13.08;94.14;101194.06;4997464;28;20025;-86
2021/10/05 03:42:32;;;;;;;16.45;4.57;;;;;;;13.07;94.29;101198.72;5013838;28;20094;-85
2021/10/05 03:44:57;;;;;;;20.17;5.22;;;;;;;13.06;94.52;101196.25;5013767;28;20033;-85
2021/10/05 03:47:23;;;;;;;13.60;4.57;;;;;;;13.02;94.39;101200.66;5001222;28;20375;-86
2021/10/05 03:49:48;;;;;;;17.67;5.15;;;;;;;13.01;94.28;101204.47;4996528;28;20030;-85
2021/10/05 03:52:13;;;;;;;14.15;4.88;;;;;;;12.97;94.70;101208.88;5013859;28;20508;-85
2021/10/05 03:54:39;;;;;;;15.45;5.95;;;;;;;12.96;94.67;101208.06;4996997;28;20025;-86
2021/10/05 03:57:04;;;;;;;15.82;5.13;;;;;;;12.97;94.87;101206.13;5003485;28;20042;-85
2021/10/05 03:59:30;;;;;;;14.52;5.63;;;;;;;12.98;95.13;101196.81;5011409;28;20029;-86
2021/10/05 04:01:55;;;;;;;11.05;4.70;;;;;;;13.03;95.20;101207.75;4979798;28;20084;-86
2021/10/05 04:04:20;;;;;;;13.02;4.63;;;;;;;13.04;95.03;101209.38;4996823;28;20469;-85
2021/10/05 04:06:46;;;;;;;17.17;5.68;;;;;;;13.04;95.14;101209.38;4995982;28;20425;-86
2021/10/05 04:09:11;;;;;;;12.80;5.20;;;;;;;13.01;95.09;101209.94;5014318;28;20414;-86
2021/10/05 04:11:37;;;;;;;15.05;5.53;;;;;;;13.01;95.60;101199.84;4979369;28;20025;-87
2021/10/05 04:14:02;;;;;;;14.55;5.47;;;;;;;13.05;95.59;101213.78;4996862;28;20445;-86
2021/10/05 04:16:28;;;;;;;17.60;4.70;;;;;;;13.10;95.60;101203.63;4979646;28;20042;-88
2021/10/05 04:18:53;;;;;;;17.15;5.47;;;;;;;13.13;95.55;101202.25;4995205;28;20029;-87
2021/10/05 04:21:19;;;;;;;11.20;5.53;;;;;;;13.08;95.53;101205.00;4981614;28;20038;-87
2021/10/05 04:23:44;;;;;;;22.88;6.60;;;;;;;13.02;95.78;101206.13;5033942;28;20010;-87
2021/10/05 04:26:11;;;;;;;14.90;5.10;;;;;;;12.97;95.42;101203.41;5002795;28;20013;-88
2021/10/05 04:28:36;;;;;;;13.40;4.85;;;;;;;12.94;95.64;101209.44;4975907;28;20029;-87
2021/10/05 04:31:02;;;;;;;12.82;5.03;;;;;;;12.92;95.66;101211.63;4980556;28;20546;-87
2021/10/05 04:33:27;;;;;;;15.38;7.13;;;;;;;12.88;95.75;101206.72;4979277;28;20610;-86
2021/10/05 04:35:53;;;;;;;16.20;5.47;;;;;;;12.88;95.76;101203.16;4996471;28;20025;-86
2021/10/05 04:38:18;;;;;;;15.65;5.50;;;;;;;12.90;96.05;101209.16;5012651;28;20141;-85
2021/10/05 04:40:44;;;;;;;19.65;6.07;;;;;;;12.88;95.88;101211.38;4980150;28;20022;-85
2021/10/05 04:43:10;;;;;;;20.40;6.10;;;;;;;12.85;96.20;101212.75;4995275;28;20065;-85
2021/10/05 04:45:35;;;;;;;14.55;6.07;;;;;;;12.85;96.28;101212.75;4979333;28;20022;-85
2021/10/05 04:48:05;;;;;;;14.85;5.05;;;;;;;12.84;96.31;101202.88;5007482;28;20083;-85
2021/10/05 04:50:31;;;;;;;16.23;5.22;;;;;;;12.85;96.46;101207.28;5011827;28;20033;-84
2021/10/05 04:52:56;;;;;;;9.90;5.63;;;;;;;12.84;96.52;101210.28;4995065;28;20022;-85
2021/10/05 04:55:21;;;;;;;16.35;5.82;;;;;;;12.86;96.63;101211.66;5013355;28;20022;-85
2021/10/05 04:57:47;;;;;;;11.77;5.90;;;;;;;12.86;96.50;101208.91;5012343;28;21545;-85
2021/10/05 05:00:14;;;;;;;11.82;5.32;;;;;;;12.88;96.60;101206.72;4995986;28;20048;-84
2021/10/05 05:02:40;;;;;;;13.02;6.10;;;;;;;12.87;96.77;101213.28;5001804;28;20152;-84
2021/10/05 05:05:06;;;;;;;15.63;5.88;;;;;;;12.87;96.49;101226.97;4995588;28;20113;-85
2021/10/05 05:07:33;;;;;;;14.27;5.72;;;;;;;12.87;96.65;101235.16;4994391;28;20030;-85
2021/10/05 05:09:58;;;;;;;14.27;4.60;;;;;;;12.84;96.61;101227.50;4995323;28;20112;-85
2021/10/05 05:12:24;;;;;;;10.07;5.32;;;;;;;12.77;96.26;101232.47;4994445;28;20030;-85
2021/10/05 05:14:50;;;;;;;19.58;6.20;;;;;;;12.70;96.58;101231.94;4995670;28;20101;-85
2021/10/05 05:17:16;;;;;;;15.52;5.80;;;;;;;12.65;96.38;101224.53;5010421;28;20425;-85
2021/10/05 05:19:41;;;;;;;20.17;6.35;;;;;;;12.60;96.32;101226.47;5011736;28;20037;-83
2021/10/05 05:22:07;;;;;;;15.90;5.47;;;;;;;12.56;96.28;101220.75;5011634;28;20531;-83
2021/10/05 05:24:32;;;;;;;18.13;6.57;;;;;;;12.51;96.40;101219.94;5012847;28;20076;-83
2021/10/05 05:26:57;;;;;;;15.75;5.53;;;;;;;12.43;96.65;101224.88;4974626;28;20454;-83
2021/10/05 05:29:23;;;;;;;17.20;6.32;;;;;;;12.39;96.22;101228.44;5003808;28;20117;-84
2021/10/05 05:31:48;;;;;;;20.17;6.05;;;;;;;12.36;96.50;101221.59;4993531;28;22349;-83
2021/10/05 05:34:14;;;;;;;13.20;5.85;;;;;;;12.33;96.44;101219.44;5012578;28;20477;-83
2021/10/05 05:36:40;;;;;;;14.18;6.38;;;;;;;12.32;96.56;101220.50;5011512;28;20105;-82
2021/10/05 05:39:05;;;;;;;10.55;4.63;;;;;;;12.30;96.73;101214.47;5012571;28;20488;-83
2021/10/05 05:41:31;;;;;;;16.67;5.75;;;;;;;12.28;96.97;101213.16;4978750;28;20026;-83
2021/10/05 05:43:58;;;;;;;8.40;5.55;;;;;;;12.30;97.19;101222.69;4977537;28;20022;-82
2021/10/05 05:46:23;;;;;;;14.60;5.45;;;;;;;12.29;97.02;101221.06;4994024;28;20037;-83
2021/10/05 05:48:49;;;;;;;19.38;6.60;;;;;;;12.28;96.96;101216.69;5010276;28;20017;-83
2021/10/05 05:51:14;;;;;;;20.20;6.70;;;;;;;12.28;97.24;101222.16;5011442;28;20473;-82
2021/10/05 05:53:39;;;;;;;13.80;7.20;;;;;;;12.26;97.19;101210.69;5011237;28;20037;-82
2021/10/05 05:56:05;;;;;;;15.45;7.35;;;;;;;12.25;97.40;101214.50;5012269;28;20033;-82
2021/10/05 05:58:30;;;;;;;19.67;7.57;;;;;;;12.23;97.20;101224.91;5011473;28;20026;-82
2021/10/05 06:00:56;;;;;;;21.48;8.52;;;;;;;12.23;97.35;101222.16;4981022;28;20109;-82
2021/10/05 06:03:21;;;;;;;15.30;8.85;;;;;;;12.25;97.48;101219.97;4993937;28;20026;-82
2021/10/05 06:05:47;;;;;;;16.52;9.52;;;;;;;12.24;97.54;101220.25;5012278;28;20034;-82
2021/10/05 06:08:12;;;;;;;15.85;9.00;;;;;;;12.26;97.38;101207.13;4993904;28;20028;-81
2021/10/05 06:10:38;;;;;;;19.05;8.80;;;;;;;12.29;97.63;101222.97;5012274;28;20029;-82
2021/10/05 06:13:04;;;;;;;20.75;9.57;;;;;;;12.32;97.60;101223.25;4993195;28;20046;-82
2021/10/05 06:15:30;;;;;;;19.30;8.40;;;;;;;12.34;97.70;101234.72;5012185;28;20113;-82
2021/10/05 06:17:55;;;;;;;20.90;8.60;;;;;;;12.36;97.90;101213.41;4993081;28;20032;-82
2021/10/05 06:20:22;;;;;;;17.38;6.88;;;;;;;12.39;97.86;101225.72;5006387;28;20030;-82
2021/10/05 06:22:48;;;;;;;19.52;8.40;;;;;;;12.38;97.86;101221.31;5010220;28;20037;-83
2021/10/05 06:25:18;;;;;;;17.23;8.75;;;;;;;12.35;97.77;101225.41;5012029;28;20029;-82
2021/10/05 06:27:44;;;;;;;23.45;9.27;;;;;;;12.33;97.68;101227.63;5011277;28;20022;-81
2021/10/05 06:30:10;;;;;;;23.25;9.07;;;;;;;12.31;97.81;101224.34;5014927;28;20495;-82
2021/10/05 06:32:36;;;;;;;22.90;10.57;;;;;;;12.36;97.75;101235.28;5014927;28;20084;-81
2021/10/05 06:35:01;;;;;;;17.80;9.80;;;;;;;12.40;97.74;101233.63;5015622;28;20022;-82
2021/10/05 06:37:27;;;;;;;23.85;11.45;;;;;;;12.42;97.57;101230.63;5014729;28;20555;-82
2021/10/05 06:39:52;;;;;;;32.10;11.75;;;;;;;12.42;97.68;101239.63;4995091;28;20030;-81
2021/10/05 06:42:18;;;;;;;23.88;12.68;;;;;;;12.41;97.71;101227.06;4996401;28;20041;-80
2021/10/05 06:44:43;;;;;;;22.08;10.60;;;;;;;12.40;97.53;101233.63;4994696;28;20034;-80
2021/10/05 06:47:08;;;;;;;20.40;10.90;;;;;;;12.38;97.62;101235.00;5005590;28;20022;-81
2021/10/05 06:49:34;;;;;;;26.05;13.02;;;;;;;12.36;97.62;101238.00;4997108;28;20024;-82
2021/10/05 06:52:02;;;;;;;19.92;12.95;;;;;;;12.38;97.67;101230.34;5014587;28;20048;-81
2021/10/05 06:54:28;;;;;;;25.67;13.02;;;;;;;12.39;97.54;101225.72;5012826;28;20044;-82
2021/10/05 06:56:53;;;;;;;22.23;13.00;;;;;;;12.43;97.72;101222.13;4997851;28;20384;-82
2021/10/05 06:59:19;;;;;;;18.67;11.23;;;;;;;12.49;97.62;101231.16;5014289;28;20084;-81
2021/10/05 07:01:44;;;;;;;21.73;13.98;;;;;;;12.50;97.50;101212.84;4981779;28;20037;-81
2021/10/05 07:04:10;;;;;;;24.33;14.02;;;;;;;12.53;97.45;101225.97;4999418;28;20030;-82
2021/10/05 07:06:37;;;;;;;19.83;11.50;;;;;;;12.52;97.21;101227.03;4996712;28;20026;-81
2021/10/05 07:09:03;;;;;;;26.98;15.05;;;;;;;12.55;97.32;101221.84;4996842;28;20022;-81
2021/10/05 07:11:29;;;;;;;23.70;14.48;;;;;;;12.58;97.02;101218.56;4994255;28;20049;-81
2021/10/05 07:13:54;;;;;;;26.45;14.38;;;;;;;12.57;96.86;101227.03;5008419;28;20045;-81
2021/10/05 07:16:21;;;;;;;19.55;12.60;;;;;;;12.54;96.87;101238.53;5013994;28;20390;-81
2021/10/05 07:18:48;;;;;;;25.65;12.50;;;;;;;12.60;96.70;101231.94;4991309;28;20594;-82
2021/10/05 07:21:13;;;;;;;16.23;10.95;;;;;;;12.60;96.45;101251.94;5015069;28;20029;-82
2021/10/05 07:23:38;;;;;;;20.48;12.38;;;;;;;12.61;96.32;101256.31;5008580;28;20077;-82
2021/10/05 07:26:04;;;;;;;23.13;12.98;;;;;;;12.64;95.85;101255.75;5006860;28;20401;-83
2021/10/05 07:28:29;;;;;;;22.52;13.25;;;;;;;12.63;95.97;101253.28;5013819;28;20525;-82
2021/10/05 07:30:55;;;;;;;18.17;11.48;;;;;;;12.62;96.05;101257.13;5014867;28;20037;-82
2021/10/05 07:33:23;;;;;;;18.20;11.80;;;;;;;12.61;95.80;101260.97;5013722;28;20026;-82
2021/10/05 07:35:49;;;;;;;14.93;10.48;;;;;;;12.61;95.95;101266.44;4978087;28;20023;-81
2021/10/05 07:38:14;;;;;;;21.08;13.00;;;;;;;12.65;95.71;101268.31;4994529;28;20037;-82
2021/10/05 07:40:41;;;;;;;18.70;12.07;;;;;;;12.68;95.67;101269.69;5013134;28;20029;-82
2021/10/05 07:43:06;;;;;;;20.65;11.52;;;;;;;12.74;95.47;101271.34;4997249;28;20041;-81
2021/10/05 07:45:32;;;;;;;17.77;11.27;;;;;;;12.71;95.02;101266.41;5013379;28;20026;-81
2021/10/05 07:47:57;;;;;;;17.58;11.43;;;;;;;12.67;94.85;101259.84;4995720;28;20447;-81
2021/10/05 07:50:23;;;;;;;20.27;10.50;;;;;;;12.62;94.71;101251.66;5010567;28;20504;-81
2021/10/05 07:52:50;;;;;;;22.67;11.35;;;;;;;12.58;94.37;101258.78;4995773;28;20500;-82
2021/10/05 07:55:15;;;;;;;21.63;10.77;;;;;;;12.56;94.65;101256.31;4996853;28;20104;-82
2021/10/05 07:57:41;;;;;;;15.98;9.65;;;;;;;12.57;94.61;101255.19;5013339;28;20037;-82
2021/10/05 08:00:07;;;;;;;19.42;11.13;;;;;;;12.56;94.65;101252.75;5014255;28;20105;-82
2021/10/05 08:02:32;;;;;;;20.30;10.65;;;;;;;12.60;94.79;101262.88;4996066;28;20029;-81
2021/10/05 08:04:58;;;;;;;21.33;10.60;;;;;;;12.65;94.64;101278.44;5013993;28;20022;-81
2021/10/05 08:07:26;;;;;;;15.55;9.85;;;;;;;12.71;94.68;101266.41;5013094;28;20478;-81
2021/10/05 08:09:53;;;;;;;15.20;9.40;;;;;;;12.80;94.53;101264.75;5013873;28;20049;-82
2021/10/05 08:12:18;;;;;;;15.82;9.10;;;;;;;12.87;94.58;101259.78;4995328;28;20037;-81
2021/10/05 08:14:44;;;;;;;15.77;8.93;;;;;;;12.90;94.43;101258.41;5012739;28;20037;-81
2021/10/05 08:17:09;;;;;;;18.05;9.77;;;;;;;12.91;94.43;101262.00;4994704;28;20044;-81
2021/10/05 08:19:35;;;;;;;15.23;7.88;;;;;;;12.89;94.23;101263.06;5011715;28;20428;-81
2021/10/05 08:22:00;;;;;;;18.27;8.00;;;;;;;12.93;94.16;101257.88;5012066;28;20038;-81
2021/10/05 08:24:26;;;;;;;12.70;8.27;;;;;;;12.99;94.13;101261.44;5012169;28;20018;-81
2021/10/05 08:26:51;;;;;;;13.13;7.72;;;;;;;12.98;93.80;101248.81;5013875;28;20025;-82
2021/10/05 08:29:18;;;;;;;12.95;7.57;;;;;;;13.00;93.71;101252.09;5012634;28;20511;-81
2021/10/05 08:31:45;;;;;;;11.45;7.03;;;;;;;13.05;93.67;101250.16;4994712;28;20474;-80
2021/10/05 08:34:11;;;;;;;13.38;7.18;;;;;;;13.10;93.55;101241.13;5012461;28;20057;-81
2021/10/05 08:36:36;;;;;;;11.65;6.80;;;;;;;13.09;93.13;101244.94;5013499;28;20030;-81
2021/10/05 08:39:02;;;;;;;13.82;6.63;;;;;;;13.11;92.73;101242.75;5012430;28;20037;-81
2021/10/05 08:41:27;;;;;;;14.50;7.55;;;;;;;13.15;92.93;101243.84;5013238;28;20120;-81
2021/10/05 08:43:53;;;;;;;16.67;7.65;;;;;;;13.18;92.52;101237.81;4993612;28;20030;-81
2021/10/05 08:46:18;;;;;;;13.48;7.68;;;;;;;13.20;92.27;101243.81;5013349;28;20018;-81
2021/10/05 08:48:43;;;;;;;11.70;6.80;;;;;;;13.22;92.05;101238.88;5012227;28;20374;-81
2021/10/05 08:51:09;;;;;;;12.75;7.38;;;;;;;13.24;91.85;101235.88;4978946;28;20030;-81
2021/10/05 08:53:38;;;;;;;14.15;6.03;;;;;;;13.24;91.25;101236.69;4994738;28;20465;-81
2021/10/05 08:56:05;;;;;;;9.55;5.53;;;;;;;13.23;90.81;101234.22;4995651;28;20374;-81
2021/10/05 08:58:32;;;;;;;12.65;6.20;;;;;;;13.26;91.13;101233.72;4994899;28;20041;-81
2021/10/05 09:01:09;;;;;;;10.15;5.43;;;;;;;13.33;91.08;101234.22;5012979;28;20033;-81
2021/10/05 09:03:35;;;;;;;12.13;6.03;;;;;;;13.39;90.66;101229.53;4994436;28;20393;-81
2021/10/05 09:06:11;;;;;;;8.02;4.85;;;;;;;13.44;90.80;101224.03;5012307;28;20029;-82
2021/10/05 09:08:38;;;;;;;10.20;4.93;;;;;;;13.53;90.17;101238.75;4977523;28;20109;-81
2021/10/05 09:11:04;;;;;;;9.15;5.28;;;;;;;13.62;90.00;101239.00;5012766;28;20473;-82
2021/10/05 09:13:31;;;;;;;7.32;4.60;;;;;;;13.73;89.94;101227.69;5011774;28;20141;-81
2021/10/05 09:15:57;;;;;;;10.90;4.85;;;;;;;13.83;89.63;101225.97;5012905;28;20026;-80
2021/10/05 09:18:23;;;;;;;6.22;4.25;;;;;;;13.88;88.88;101214.97;4994360;28;20491;-81
2021/10/05 09:20:49;;;;;;;6.85;4.47;;;;;;;13.87;88.50;101205.94;5012753;28;20119;-81
2021/10/05 09:23:14;;;;;;;8.35;4.57;;;;;;;13.97;88.71;101207.78;5011673;28;20472;-83
2021/10/05 09:25:47;;;;;;;8.73;3.80;;;;;;;14.03;88.29;101206.63;5012802;28;20026;-82
2021/10/05 09:28:23;;;;;;;8.63;4.30;;;;;;;14.11;87.96;101206.03;5009945;28;20032;-81
2021/10/05 09:31:02;;;;;;;5.68;3.20;;;;;;;14.17;87.79;101207.59;5012871;28;20022;-82
2021/10/05 09:33:28;;;;;;;7.03;3.13;;;;;;;14.27;87.61;101203.13;4994031;28;20048;-82
2021/10/05 09:35:54;;;;;;;5.00;3.17;;;;;;;14.38;87.23;101204.69;5012954;28;20100;-82
2021/10/05 09:38:20;;;;;;;6.95;3.67;;;;;;;14.41;87.04;101209.59;4993890;28;20436;-81
2021/10/05 09:41:08;;;;;;;7.30;2.75;;;;;;;14.44;86.53;101198.03;5012476;28;20515;-81
2021/10/05 09:43:33;;;;;;;5.13;3.38;;;;;;;14.52;86.31;101202.09;5009723;28;20105;-81
2021/10/05 09:46:09;;;;;;;5.82;3.00;;;;;;;14.52;85.91;101200.19;5012175;28;20092;-81
2021/10/05 09:48:34;;;;;;;7.72;3.20;;;;;;;14.56;85.88;101189.44;5011366;28;20088;-81
2021/10/05 09:50:59;;;;;;;6.88;3.20;;;;;;;14.62;85.58;101183.63;5012121;28;20481;-81
2021/10/05 09:53:25;;;;;;;6.53;3.00;;;;;;;14.68;85.26;101186.28;4977824;28;20022;-81
2021/10/05 09:55:50;;;;;;;5.38;2.97;;;;;;;14.75;85.11;101179.34;4994565;28;20064;-82
2021/10/05 09:58:17;;;;;;;6.72;2.85;;;;;;;14.77;84.58;101190.03;5011518;28;20461;-81
2021/10/05 10:00:45;;;;;;;7.72;3.35;;;;;;;14.78;84.51;101191.66;5012358;28;20033;-81
2021/10/05 10:03:11;;;;;;;4.93;2.92;;;;;;;14.85;84.19;101181.16;5013968;28;20100;-81
2021/10/05 10:05:40;;;;;;;5.40;2.53;;;;;;;14.85;83.96;101175.66;5018846;28;20078;-81
2021/10/05 10:08:06;;;;;;;4.47;2.53;;;;;;;14.91;83.68;101173.69;5000637;28;20152;-81
2021/10/05 10:10:36;;;;;;;4.90;2.40;;;;;;;14.94;83.38;101162.91;5001123;28;20453;-81
2021/10/05 10:13:04;;;;;;;2.80;2.30;;;;;;;14.99;83.27;101171.09;5016165;28;20045;-81
2021/10/05 10:15:41;;;;;;;6.28;3.03;;;;;;;15.06;82.76;101160.56;5010340;28;20030;-82
2021/10/05 10:18:11;;;;;;;8.52;3.13;;;;;;;15.09;82.61;101168.22;5000912;28;20587;-82
2021/10/05 10:20:40;;;;;;;4.65;2.55;;;;;;;15.09;82.31;101165.47;4985313;28;20029;-81
2021/10/05 10:23:25;;;;;;;3.88;2.40;;;;;;;15.13;82.05;101164.88;5016672;28;20392;-82
2021/10/05 10:25:58;;;;;;;3.10;2.50;;;;;;;15.19;81.77;101163.69;5018579;28;20029;-82
2021/10/05 10:28:30;;;;;;;5.10;2.58;;;;;;;15.24;81.61;101160.88;5017939;28;20120;-81
2021/10/05 10:30:58;;;;;;;6.00;2.83;;;;;;;15.27;81.53;101154.78;5018857;28;20096;-82
2021/10/05 10:33:24;;;;;;;3.50;2.65;;;;;;;15.30;81.18;101152.28;5017282;28;20481;-82
2021/10/05 10:35:50;;;;;;;3.63;2.50;;;;;;;15.30;81.18;101151.44;5018706;28;20033;-82
2021/10/05 10:38:30;;;;;;;4.03;2.60;;;;;;;15.36;81.04;101147.53;5017649;28;20385;-82
2021/10/05 10:40:56;;;;;;;5.32;2.60;;;;;;;15.40;80.68;101140.31;4989531;28;20527;-82
2021/10/05 10:43:23;;;;;;;3.85;2.70;;;;;;;15.44;80.72;101138.63;4995330;28;20417;-82
2021/10/05 10:45:51;;;;;;;5.53;2.72;;;;;;;15.48;80.63;101127.84;4999803;28;20023;-82
2021/10/05 10:48:36;;;;;;;6.15;2.90;;;;;;;15.51;80.34;101136.28;5017464;28;20108;-82
2021/10/05 10:51:13;;;;;;;4.47;2.58;;;;;;;15.57;80.11;101131.53;5018316;28;20021;-82
2021/10/05 10:53:40;;;;;;;3.88;2.42;;;;;;;15.61;79.99;101127.09;5017283;28;20125;-82
2021/10/05 10:56:05;;;;;;;5.45;2.55;;;;;;;15.68;79.89;101134.94;5017135;28;20072;-82
2021/10/05 10:58:40;;;;;;;3.70;2.80;;;;;;;15.77;79.69;101127.69;5017564;28;20049;-82
2021/10/05 11:01:08;;;;;;;3.67;2.47;;;;;;;15.82;79.63;101124.00;4985399;28;20077;-82
2021/10/05 11:03:33;;;;;;;5.80;2.58;;;;;;;15.89;79.37;101122.53;4999715;28;20025;-82
2021/10/05 11:05:58;;;;;;;4.63;2.75;;;;;;;16.01;79.25;101123.97;5018113;28;20480;-82
2021/10/05 11:08:24;;;;;;;4.38;2.42;;;;;;;16.07;78.84;101128.25;5017392;28;20080;-82
2021/10/05 11:10:51;;;;;;;3.95;2.80;;;;;;;16.15;78.71;101122.06;5018231;28;20121;-82
2021/10/05 11:13:16;;;;;;;2.95;2.20;;;;;;;16.24;78.60;101119.44;5016809;28;20420;-82